Time,TemperatureF,DewpointF,PressureIn,WindDirection,WindDirectionDegrees,WindSpeedMPH,WindSpeedGustMPH,Humidity,HourlyPrecipIn,Conditions,Clouds,dailyrainin,SolarRadiationWatts/m^2,SoftwareType,DateUTC
2013-02-08 00:01:00,61.8,60.0,29.98,SW,219,0.0,-999.0,95,-99.99,,,0.00,0,weatherlink.com 1.10,2013-02-08 06:01:00,
2013-02-08 00:16:00,61.8,60.0,29.98,SW,218,0.0,-999.0,95,-99.99,,,0.00,0,weatherlink.com 1.10,2013-02-08 06:16:00,
2013-02-08 00:31:00,61.7,60.0,29.98,SW,219,0.0,-999.0,95,-99.99,,,0.00,0,weatherlink.com 1.10,2013-02-08 06:31:00,
2013-02-08 00:46:00,61.4,60.0,29.98,SW,219,0.0,-999.0,95,-99.99,,,0.00,0,weatherlink.com 1.10,2013-02-08 06:46:00,
2013-02-08 01:01:00,60.9,60.0,29.98,SW,218,0.0,-999.0,95,-99.99,,,0.00,0,weatherlink.com 1.10,2013-02-08 07:01:00,
2013-02-08 01:16:00,60.4,59.0,29.99,SW,219,0.0,-999.0,95,-99.99,,,0.00,0,weatherlink.com 1.10,2013-02-08 07:16:00,
2013-02-08 01:31:00,60.2,59.0,29.99,SW,218,0.0,-999.0,95,-99.99,,,0.00,0,weatherlink.com 1.10,2013-02-08 07:31:00,
2013-02-08 01:46:00,60.7,60.0,30.00,SW,219,0.0,-999.0,96,-99.99,,,0.00,0,weatherlink.com 1.10,2013-02-08 07:46:00,
2013-02-08 02:01:00,61.1,60.0,30.00,SW,219,0.0,-999.0,96,-99.99,,,0.00,0,weatherlink.com 1.10,2013-02-08 08:01:00,
2013-02-08 02:16:00,61.2,60.0,30.00,SW,219,0.0,-999.0,96,-99.99,,,0.00,0,weatherlink.com 1.10,2013-02-08 08:16:00,
2013-02-08 02:31:00,61.2,60.0,30.00,West,275,0.0,-999.0,96,-99.99,,,0.00,0,weatherlink.com 1.10,2013-02-08 08:31:00,
2013-02-08 02:46:00,61.0,60.0,30.00,NNW,334,3.0,-999.0,96,-99.99,,,0.00,0,weatherlink.com 1.10,2013-02-08 08:46:00,
2013-02-08 03:01:00,60.5,59.0,30.00,NW,311,2.0,-999.0,95,-99.99,,,0.00,0,weatherlink.com 1.10,2013-02-08 09:01:00,
2013-02-08 03:16:00,60.4,58.0,30.01,WNW,303,2.0,-999.0,92,-99.99,,,0.00,0,weatherlink.com 1.10,2013-02-08 09:16:00,
2013-02-08 03:31:00,60.4,57.0,30.01,NNW,333,3.0,-999.0,89,-99.99,,,0.00,0,weatherlink.com 1.10,2013-02-08 09:31:00,
2013-02-08 03:46:00,60.1,56.0,30.02,NNW,327,6.0,-999.0,87,-99.99,,,0.00,0,weatherlink.com 1.10,2013-02-08 09:46:00,
2013-02-08 04:01:00,60.0,56.0,30.02,NNW,329,3.0,-999.0,86,-99.99,,,0.00,0,weatherlink.com 1.10,2013-02-08 10:01:00,
2013-02-08 04:16:00,59.3,55.0,30.02,NW,304,5.0,-999.0,86,-99.99,,,0.00,0,weatherlink.com 1.10,2013-02-08 10:16:00,
2013-02-08 04:31:00,59.0,55.0,30.02,NNW,327,4.0,-999.0,87,-99.99,,,0.00,0,weatherlink.com 1.10,2013-02-08 10:31:00,
2013-02-08 04:47:00,58.3,55.0,30.02,NNW,328,3.0,-999.0,87,-99.99,,,0.00,0,weatherlink.com 1.10,2013-02-08 10:47:00,
2013-02-08 05:01:00,57.8,54.0,30.03,NW,323,4.0,-999.0,86,-99.99,,,0.00,0,weatherlink.com 1.10,2013-02-08 11:01:00,
2013-02-08 05:16:00,57.5,53.0,30.04,NNW,328,1.0,-999.0,86,-99.99,,,0.00,0,weatherlink.com 1.10,2013-02-08 11:16:00,
2013-02-08 05:31:00,57.1,53.0,30.05,NNW,336,4.0,-999.0,85,-99.99,,,0.00,0,weatherlink.com 1.10,2013-02-08 11:31:00,
2013-02-08 05:47:00,56.6,53.0,30.05,NNW,343,2.0,-999.0,86,-99.99,,,0.00,0,weatherlink.com 1.10,2013-02-08 11:47:00,
2013-02-08 06:01:00,56.1,52.0,30.05,NNW,330,2.0,-999.0,87,-99.99,,,0.00,0,weatherlink.com 1.10,2013-02-08 12:01:00,
2013-02-08 06:16:00,56.0,52.0,30.06,NNW,340,4.0,-999.0,86,-99.99,,,0.00,0,weatherlink.com 1.10,2013-02-08 12:16:00,
2013-02-08 06:32:00,55.8,52.0,30.07,NNW,344,2.0,-999.0,87,-99.99,,,0.00,0,weatherlink.com 1.10,2013-02-08 12:32:00,
2013-02-08 06:47:00,55.5,52.0,30.08,NNW,329,2.0,-999.0,87,-99.99,,,0.00,0,weatherlink.com 1.10,2013-02-08 12:47:00,
2013-02-08 07:02:00,55.0,52.0,30.09,NW,311,2.0,-999.0,88,-99.99,,,0.00,0,weatherlink.com 1.10,2013-02-08 13:02:00,
2013-02-08 07:17:00,54.9,52.0,30.09,NW,325,3.0,-999.0,88,-99.99,,,0.00,11,weatherlink.com 1.10,2013-02-08 13:17:00,
2013-02-08 07:32:00,54.9,52.0,30.10,WNW,298,0.0,-999.0,88,-99.99,,,0.00,19,weatherlink.com 1.10,2013-02-08 13:32:00,
2013-02-08 07:47:00,55.3,52.0,30.11,NW,315,0.0,-999.0,87,-99.99,,,0.00,63,weatherlink.com 1.10,2013-02-08 13:47:00,
2013-02-08 08:02:00,55.9,52.0,30.12,NNW,331,2.0,-999.0,86,-99.99,,,0.00,105,weatherlink.com 1.10,2013-02-08 14:02:00,
2013-02-08 08:17:00,56.7,52.0,30.12,NNW,347,3.0,-999.0,85,-99.99,,,0.00,153,weatherlink.com 1.10,2013-02-08 14:17:00,
2013-02-08 08:32:00,57.4,52.0,30.12,North,355,6.0,-999.0,83,-99.99,,,0.00,199,weatherlink.com 1.10,2013-02-08 14:32:00,
2013-02-08 08:47:00,58.1,53.0,30.13,NNW,333,1.0,-999.0,82,-99.99,,,0.00,250,weatherlink.com 1.10,2013-02-08 14:47:00,
2013-02-08 09:02:00,58.7,53.0,30.13,NNW,344,2.0,-999.0,81,-99.99,,,0.00,299,weatherlink.com 1.10,2013-02-08 15:02:00,
2013-02-08 09:17:00,59.4,53.0,30.14,NW,325,2.0,-999.0,79,-99.99,,,0.00,345,weatherlink.com 1.10,2013-02-08 15:17:00,
2013-02-08 09:32:00,60.2,53.0,30.14,North,5,2.0,-999.0,76,-99.99,,,0.00,390,weatherlink.com 1.10,2013-02-08 15:32:00,
2013-02-08 09:47:00,60.7,53.0,30.15,NW,307,3.0,-999.0,75,-99.99,,,0.00,434,weatherlink.com 1.10,2013-02-08 15:47:00,
2013-02-08 10:03:00,61.3,53.0,30.16,NW,316,9.0,-999.0,74,-99.99,,,0.00,483,weatherlink.com 1.10,2013-02-08 16:03:00,
2013-02-08 10:17:00,62.1,53.0,30.16,ENE,57,0.0,-999.0,73,-99.99,,,0.00,519,weatherlink.com 1.10,2013-02-08 16:17:00,
2013-02-08 10:33:00,62.7,54.0,30.16,NW,311,8.0,-999.0,72,-99.99,,,0.00,555,weatherlink.com 1.10,2013-02-08 16:33:00,
2013-02-08 10:48:00,63.4,54.0,30.15,NW,319,0.0,-999.0,71,-99.99,,,0.00,587,weatherlink.com 1.10,2013-02-08 16:48:00,
2013-02-08 11:03:00,64.0,54.0,30.15,NNE,26,1.0,-999.0,69,-99.99,,,0.00,617,weatherlink.com 1.10,2013-02-08 17:03:00,
2013-02-08 11:18:00,64.5,53.0,30.15,NE,48,2.0,-999.0,67,-99.99,,,0.00,640,weatherlink.com 1.10,2013-02-08 17:18:00,
2013-02-08 11:33:00,64.7,54.0,30.14,NE,55,4.0,-999.0,68,-99.99,,,0.00,661,weatherlink.com 1.10,2013-02-08 17:33:00,
2013-02-08 11:48:00,65.0,54.0,30.14,NNE,24,2.0,-999.0,67,-99.99,,,0.00,673,weatherlink.com 1.10,2013-02-08 17:48:00,
2013-02-08 12:03:00,65.5,54.0,30.14,NW,319,1.0,-999.0,67,-99.99,,,0.00,684,weatherlink.com 1.10,2013-02-08 18:03:00,
2013-02-08 12:18:00,65.9,54.0,30.13,West,280,6.0,-999.0,65,-99.99,,,0.00,700,weatherlink.com 1.10,2013-02-08 18:18:00,
2013-02-08 12:33:00,66.3,54.0,30.13,NW,323,3.0,-999.0,65,-99.99,,,0.00,707,weatherlink.com 1.10,2013-02-08 18:33:00,
2013-02-08 12:48:00,67.7,54.0,30.12,NW,319,4.0,-999.0,61,-99.99,,,0.00,707,weatherlink.com 1.10,2013-02-08 18:48:00,
2013-02-08 13:03:00,68.2,54.0,30.11,NE,38,2.0,-999.0,60,-99.99,,,0.00,707,weatherlink.com 1.10,2013-02-08 19:03:00,
2013-02-08 13:18:00,68.8,54.0,30.11,North,360,1.0,-999.0,60,-99.99,,,0.00,694,weatherlink.com 1.10,2013-02-08 19:18:00,
2013-02-08 13:33:00,68.6,54.0,30.10,NE,37,2.0,-999.0,60,-99.99,,,0.00,686,weatherlink.com 1.10,2013-02-08 19:33:00,
2013-02-08 13:48:00,69.0,54.0,30.10,NNW,340,0.0,-999.0,59,-99.99,,,0.00,673,weatherlink.com 1.10,2013-02-08 19:48:00,
2013-02-08 14:03:00,69.4,53.0,30.10,NW,325,0.0,-999.0,57,-99.99,,,0.00,629,weatherlink.com 1.10,2013-02-08 20:03:00,
2013-02-08 14:18:00,69.5,53.0,30.09,NE,49,2.0,-999.0,57,-99.99,,,0.00,635,weatherlink.com 1.10,2013-02-08 20:18:00,
2013-02-08 14:33:00,70.1,54.0,30.09,North,10,3.0,-999.0,57,-99.99,,,0.00,606,weatherlink.com 1.10,2013-02-08 20:33:00,
2013-02-08 14:48:00,70.4,54.0,30.09,NNW,342,3.0,-999.0,56,-99.99,,,0.00,573,weatherlink.com 1.10,2013-02-08 20:48:00,
2013-02-08 15:03:00,70.4,54.0,30.08,NNW,335,1.0,-999.0,56,-99.99,,,0.00,540,weatherlink.com 1.10,2013-02-08 21:03:00,
2013-02-08 15:18:00,70.7,55.0,30.08,NNW,331,3.0,-999.0,57,-99.99,,,0.00,503,weatherlink.com 1.10,2013-02-08 21:18:00,
2013-02-08 15:33:00,70.2,54.0,30.07,NE,39,2.0,-999.0,57,-99.99,,,0.00,461,weatherlink.com 1.10,2013-02-08 21:33:00,
2013-02-08 15:49:00,70.4,55.0,30.07,NW,325,3.0,-999.0,59,-99.99,,,0.00,417,weatherlink.com 1.10,2013-02-08 21:49:00,
2013-02-08 16:03:00,70.0,55.0,30.07,ESE,107,2.0,-999.0,59,-99.99,,,0.00,371,weatherlink.com 1.10,2013-02-08 22:03:00,
2013-02-08 16:18:00,69.8,55.0,30.08,ENE,78,1.0,-999.0,60,-99.99,,,0.00,322,weatherlink.com 1.10,2013-02-08 22:18:00,
2013-02-08 16:33:00,68.9,55.0,30.08,NE,38,0.0,-999.0,62,-99.99,,,0.00,272,weatherlink.com 1.10,2013-02-08 22:33:00,
2013-02-08 16:48:00,68.0,55.0,30.07,ESE,111,1.0,-999.0,63,-99.99,,,0.00,200,weatherlink.com 1.10,2013-02-08 22:48:00,
2013-02-08 17:03:00,67.0,55.0,30.07,ENE,75,3.0,-999.0,65,-99.99,,,0.00,33,weatherlink.com 1.10,2013-02-08 23:03:00,
2013-02-08 17:18:00,66.5,55.0,30.08,ESE,107,5.0,-999.0,66,-99.99,,,0.00,26,weatherlink.com 1.10,2013-02-08 23:18:00,
2013-02-08 17:34:00,65.7,54.0,30.07,East,96,1.0,-999.0,67,-99.99,,,0.00,16,weatherlink.com 1.10,2013-02-08 23:34:00,
2013-02-08 17:48:00,65.1,55.0,30.08,SE,140,4.0,-999.0,69,-99.99,,,0.00,12,weatherlink.com 1.10,2013-02-08 23:48:00,
2013-02-08 18:03:00,64.5,55.0,30.08,East,92,0.0,-999.0,70,-99.99,,,0.00,0,weatherlink.com 1.10,2013-02-09 00:03:00,
2013-02-08 18:34:00,63.1,53.0,30.09,ENE,61,0.0,-999.0,69,-99.99,,,0.00,0,weatherlink.com 1.10,2013-02-09 00:34:00,
2013-02-08 18:49:00,62.0,52.0,30.09,NE,52,0.0,-999.0,71,-99.99,,,0.00,0,weatherlink.com 1.10,2013-02-09 00:49:00,
2013-02-08 19:03:00,61.1,52.0,30.10,NNE,25,0.0,-999.0,73,-99.99,,,0.00,0,weatherlink.com 1.10,2013-02-09 01:03:00,
2013-02-08 19:19:00,60.3,52.0,30.10,NE,48,0.0,-999.0,73,-99.99,,,0.00,0,weatherlink.com 1.10,2013-02-09 01:19:00,
2013-02-08 19:34:00,59.7,51.0,30.09,NE,52,0.0,-999.0,74,-99.99,,,0.00,0,weatherlink.com 1.10,2013-02-09 01:34:00,
2013-02-08 19:48:00,59.2,51.0,30.11,NE,53,0.0,-999.0,75,-99.99,,,0.00,0,weatherlink.com 1.10,2013-02-09 01:48:00,
2013-02-08 20:04:00,59.0,51.0,30.11,NE,53,0.0,-999.0,76,-99.99,,,0.00,0,weatherlink.com 1.10,2013-02-09 02:04:00,
2013-02-08 20:18:00,58.5,51.0,30.11,NE,53,0.0,-999.0,76,-99.99,,,0.00,0,weatherlink.com 1.10,2013-02-09 02:18:00,
2013-02-08 20:34:00,58.3,51.0,30.12,NE,53,0.0,-999.0,77,-99.99,,,0.00,0,weatherlink.com 1.10,2013-02-09 02:34:00,
2013-02-08 20:48:00,58.0,51.0,30.12,NE,53,0.0,-999.0,77,-99.99,,,0.00,0,weatherlink.com 1.10,2013-02-09 02:48:00,
2013-02-08 21:04:00,57.4,51.0,30.12,NE,52,0.0,-999.0,78,-99.99,,,0.00,0,weatherlink.com 1.10,2013-02-09 03:04:00,
2013-02-08 21:19:00,57.2,51.0,30.12,ENE,59,3.0,-999.0,80,-99.99,,,0.00,0,weatherlink.com 1.10,2013-02-09 03:19:00,
2013-02-08 21:34:00,57.4,51.0,30.13,ENE,64,0.0,-999.0,80,-99.99,,,0.00,0,weatherlink.com 1.10,2013-02-09 03:34:00,
2013-02-08 21:49:00,57.4,52.0,30.13,ENE,76,0.0,-999.0,81,-99.99,,,0.00,0,weatherlink.com 1.10,2013-02-09 03:49:00,
2013-02-08 22:04:00,57.2,52.0,30.12,ENE,76,0.0,-999.0,82,-99.99,,,0.00,0,weatherlink.com 1.10,2013-02-09 04:04:00,
2013-02-08 22:19:00,56.7,52.0,30.12,ENE,76,0.0,-999.0,83,-99.99,,,0.00,0,weatherlink.com 1.10,2013-02-09 04:19:00,
2013-02-08 22:34:00,56.2,52.0,30.13,ENE,76,0.0,-999.0,84,-99.99,,,0.00,0,weatherlink.com 1.10,2013-02-09 04:34:00,
2013-02-08 22:49:00,55.9,52.0,30.12,ENE,75,0.0,-999.0,86,-99.99,,,0.00,0,weatherlink.com 1.10,2013-02-09 04:49:00,
2013-02-08 23:04:00,55.4,51.0,30.13,ENE,75,0.0,-999.0,86,-99.99,,,0.00,0,weatherlink.com 1.10,2013-02-09 05:04:00,
2013-02-08 23:19:00,55.5,52.0,30.12,ESE,113,3.0,-999.0,89,-99.99,,,0.00,0,weatherlink.com 1.10,2013-02-09 05:19:00,
2013-02-08 23:34:00,56.6,53.0,30.12,ESE,119,3.0,-999.0,87,-99.99,,,0.00,0,weatherlink.com 1.10,2013-02-09 05:34:00,
2013-02-08 23:49:00,56.9,53.0,30.12,East,82,2.0,-999.0,87,-99.99,,,0.00,0,weatherlink.com 1.10,2013-02-09 05:49:00,